sensor_id;sensor_type;location;lat;lon;timestamp;temperature;humidity
18434;DHT22;9344;52.294;13.626;2022-10-22T00:01:53;15.60;99.90
18434;DHT22;9344;52.294;13.626;2022-10-22T00:04:20;15.60;99.90
18434;DHT22;9344;52.294;13.626;2022-10-22T00:06:46;15.50;99.90
18434;DHT22;9344;52.294;13.626;2022-10-22T00:09:13;15.50;99.90
18434;DHT22;9344;52.294;13.626;2022-10-22T00:11:40;15.50;99.90
18434;DHT22;9344;52.294;13.626;2022-10-22T00:14:07;15.50;99.90
18434;DHT22;9344;52.294;13.626;2022-10-22T00:16:34;15.50;99.90
18434;DHT22;9344;52.294;13.626;2022-10-22T00:19:01;15.50;99.90
18434;DHT22;9344;52.294;13.626;2022-10-22T00:21:28;15.50;99.90
18434;DHT22;9344;52.294;13.626;2022-10-22T00:23:55;15.50;99.90
18434;DHT22;9344;52.294;13.626;2022-10-22T00:26:22;15.40;99.90
18434;DHT22;9344;52.294;13.626;2022-10-22T00:28:48;15.40;99.90
18434;DHT22;9344;52.294;13.626;2022-10-22T00:31:15;15.50;99.90
18434;DHT22;9344;52.294;13.626;2022-10-22T00:33:45;15.40;99.90
18434;DHT22;9344;52.294;13.626;2022-10-22T00:36:13;15.40;99.90
18434;DHT22;9344;52.294;13.626;2022-10-22T00:38:40;15.40;99.90
18434;DHT22;9344;52.294;13.626;2022-10-22T00:41:07;15.40;99.90
18434;DHT22;9344;52.294;13.626;2022-10-22T00:43:51;15.30;99.90
18434;DHT22;9344;52.294;13.626;2022-10-22T00:46:18;15.30;99.90
18434;DHT22;9344;52.294;13.626;2022-10-22T00:48:44;15.40;99.90
18434;DHT22;9344;52.294;13.626;2022-10-22T00:51:12;15.40;99.90
18434;DHT22;9344;52.294;13.626;2022-10-22T00:53:42;15.40;99.90
18434;DHT22;9344;52.294;13.626;2022-10-22T00:56:10;15.30;99.90
18434;DHT22;9344;52.294;13.626;2022-10-22T00:58:41;15.30;99.90
18434;DHT22;9344;52.294;13.626;2022-10-22T01:01:13;15.20;99.90
18434;DHT22;9344;52.294;13.626;2022-10-22T01:03:41;15.10;99.90
18434;DHT22;9344;52.294;13.626;2022-10-22T01:06:13;15.00;99.90
18434;DHT22;9344;52.294;13.626;2022-10-22T01:08:47;15.00;99.90
18434;DHT22;9344;52.294;13.626;2022-10-22T01:11:22;14.90;99.90
18434;DHT22;9344;52.294;13.626;2022-10-22T01:13:57;14.90;99.90
18434;DHT22;9344;52.294;13.626;2022-10-22T01:16:32;14.90;99.90
18434;DHT22;9344;52.294;13.626;2022-10-22T01:19:11;14.90;99.90
18434;DHT22;9344;52.294;13.626;2022-10-22T01:21:42;14.90;99.90
18434;DHT22;9344;52.294;13.626;2022-10-22T01:24:30;14.90;99.90
18434;DHT22;9344;52.294;13.626;2022-10-22T01:27:08;14.90;99.90
18434;DHT22;9344;52.294;13.626;2022-10-22T01:29:41;14.90;99.90
18434;DHT22;9344;52.294;13.626;2022-10-22T01:32:13;14.90;99.90
18434;DHT22;9344;52.294;13.626;2022-10-22T01:34:43;15.00;99.90
18434;DHT22;9344;52.294;13.626;2022-10-22T01:37:13;15.00;99.90
18434;DHT22;9344;52.294;13.626;2022-10-22T01:39:42;15.00;99.90
18434;DHT22;9344;52.294;13.626;2022-10-22T01:42:11;15.00;99.90
18434;DHT22;9344;52.294;13.626;2022-10-22T01:44:39;15.10;99.90
18434;DHT22;9344;52.294;13.626;2022-10-22T01:47:16;15.00;99.90
18434;DHT22;9344;52.294;13.626;2022-10-22T01:50:04;15.10;99.90
18434;DHT22;9344;52.294;13.626;2022-10-22T01:52:47;15.10;99.90
18434;DHT22;9344;52.294;13.626;2022-10-22T01:55:26;15.10;99.90
18434;DHT22;9344;52.294;13.626;2022-10-22T01:58:02;15.10;99.90
18434;DHT22;9344;52.294;13.626;2022-10-22T02:00:35;15.10;99.90
18434;DHT22;9344;52.294;13.626;2022-10-22T02:03:06;15.10;99.90
18434;DHT22;9344;52.294;13.626;2022-10-22T02:05:38;15.10;99.90
18434;DHT22;9344;52.294;13.626;2022-10-22T02:08:09;15.10;99.90
18434;DHT22;9344;52.294;13.626;2022-10-22T02:10:37;15.10;99.90
18434;DHT22;9344;52.294;13.626;2022-10-22T02:13:08;15.10;99.90
18434;DHT22;9344;52.294;13.626;2022-10-22T02:15:37;15.10;99.90
18434;DHT22;9344;52.294;13.626;2022-10-22T02:18:06;15.00;99.90
18434;DHT22;9344;52.294;13.626;2022-10-22T02:20:35;15.00;99.90
18434;DHT22;9344;52.294;13.626;2022-10-22T02:23:04;15.00;99.90
18434;DHT22;9344;52.294;13.626;2022-10-22T02:25:33;15.00;99.90
18434;DHT22;9344;52.294;13.626;2022-10-22T02:28:06;14.90;99.90
18434;DHT22;9344;52.294;13.626;2022-10-22T02:30:37;15.00;99.90
18434;DHT22;9344;52.294;13.626;2022-10-22T02:33:08;14.90;99.90
18434;DHT22;9344;52.294;13.626;2022-10-22T02:35:38;14.90;99.90
18434;DHT22;9344;52.294;13.626;2022-10-22T02:38:06;14.90;99.90
18434;DHT22;9344;52.294;13.626;2022-10-22T02:40:33;14.90;99.90
18434;DHT22;9344;52.294;13.626;2022-10-22T02:43:03;14.90;99.90
18434;DHT22;9344;52.294;13.626;2022-10-22T02:45:30;14.90;99.90
18434;DHT22;9344;52.294;13.626;2022-10-22T02:47:58;14.90;99.90
18434;DHT22;9344;52.294;13.626;2022-10-22T02:50:24;14.90;99.90
18434;DHT22;9344;52.294;13.626;2022-10-22T02:52:51;14.90;99.90
18434;DHT22;9344;52.294;13.626;2022-10-22T02:55:17;14.90;99.90
18434;DHT22;9344;52.294;13.626;2022-10-22T02:57:44;14.90;99.90
18434;DHT22;9344;52.294;13.626;2022-10-22T03:00:11;14.90;99.90
18434;DHT22;9344;52.294;13.626;2022-10-22T03:02:38;14.90;99.90
18434;DHT22;9344;52.294;13.626;2022-10-22T03:05:07;14.90;99.90
18434;DHT22;9344;52.294;13.626;2022-10-22T03:07:34;14.80;99.90
18434;DHT22;9344;52.294;13.626;2022-10-22T03:10:00;14.80;99.90
18434;DHT22;9344;52.294;13.626;2022-10-22T03:12:27;14.80;99.90
18434;DHT22;9344;52.294;13.626;2022-10-22T03:14:53;14.80;99.90
18434;DHT22;9344;52.294;13.626;2022-10-22T03:17:20;14.80;99.90
18434;DHT22;9344;52.294;13.626;2022-10-22T03:19:46;14.80;99.90
18434;DHT22;9344;52.294;13.626;2022-10-22T03:22:17;14.80;99.90
18434;DHT22;9344;52.294;13.626;2022-10-22T03:24:49;14.80;99.90
18434;DHT22;9344;52.294;13.626;2022-10-22T03:27:19;14.80;99.90
18434;DHT22;9344;52.294;13.626;2022-10-22T03:29:48;14.80;99.90
18434;DHT22;9344;52.294;13.626;2022-10-22T03:32:16;14.70;99.90
18434;DHT22;9344;52.294;13.626;2022-10-22T03:34:43;14.70;99.90
18434;DHT22;9344;52.294;13.626;2022-10-22T03:37:09;14.60;99.90
18434;DHT22;9344;52.294;13.626;2022-10-22T03:39:38;14.60;99.90
18434;DHT22;9344;52.294;13.626;2022-10-22T03:42:05;14.60;99.90
18434;DHT22;9344;52.294;13.626;2022-10-22T03:44:34;14.60;99.90
18434;DHT22;9344;52.294;13.626;2022-10-22T03:47:01;14.60;99.90
18434;DHT22;9344;52.294;13.626;2022-10-22T03:49:28;14.60;99.90
18434;DHT22;9344;52.294;13.626;2022-10-22T03:51:54;14.60;99.90
18434;DHT22;9344;52.294;13.626;2022-10-22T03:54:21;14.60;99.90
18434;DHT22;9344;52.294;13.626;2022-10-22T03:56:48;14.60;99.90
18434;DHT22;9344;52.294;13.626;2022-10-22T03:59:15;14.50;99.90
18434;DHT22;9344;52.294;13.626;2022-10-22T04:01:42;14.50;99.90
18434;DHT22;9344;52.294;13.626;2022-10-22T04:04:08;14.50;99.90
18434;DHT22;9344;52.294;13.626;2022-10-22T04:06:34;14.50;99.90
18434;DHT22;9344;52.294;13.626;2022-10-22T04:09:01;14.50;99.90
18434;DHT22;9344;52.294;13.626;2022-10-22T04:11:27;14.50;99.90
18434;DHT22;9344;52.294;13.626;2022-10-22T04:13:55;14.50;99.90
18434;DHT22;9344;52.294;13.626;2022-10-22T04:16:22;14.50;99.90
18434;DHT22;9344;52.294;13.626;2022-10-22T04:18:49;14.60;99.90
18434;DHT22;9344;52.294;13.626;2022-10-22T04:21:17;14.50;99.90
18434;DHT22;9344;52.294;13.626;2022-10-22T04:23:45;14.50;99.90
18434;DHT22;9344;52.294;13.626;2022-10-22T04:26:12;14.50;99.90
18434;DHT22;9344;52.294;13.626;2022-10-22T04:28:39;14.60;99.90
18434;DHT22;9344;52.294;13.626;2022-10-22T04:31:12;14.50;99.90
18434;DHT22;9344;52.294;13.626;2022-10-22T04:33:38;14.50;99.90
18434;DHT22;9344;52.294;13.626;2022-10-22T04:36:06;14.50;99.90
18434;DHT22;9344;52.294;13.626;2022-10-22T04:38:33;14.50;99.90
18434;DHT22;9344;52.294;13.626;2022-10-22T04:41:08;14.40;99.90
18434;DHT22;9344;52.294;13.626;2022-10-22T04:43:35;14.40;99.90
18434;DHT22;9344;52.294;13.626;2022-10-22T04:46:01;14.40;99.90
18434;DHT22;9344;52.294;13.626;2022-10-22T04:48:29;14.40;99.90
18434;DHT22;9344;52.294;13.626;2022-10-22T04:50:57;14.40;99.90
18434;DHT22;9344;52.294;13.626;2022-10-22T04:53:23;14.40;99.90
18434;DHT22;9344;52.294;13.626;2022-10-22T04:55:50;14.40;99.90
18434;DHT22;9344;52.294;13.626;2022-10-22T04:58:16;14.40;99.90
18434;DHT22;9344;52.294;13.626;2022-10-22T05:00:43;14.40;99.90
18434;DHT22;9344;52.294;13.626;2022-10-22T05:03:09;14.40;99.90
18434;DHT22;9344;52.294;13.626;2022-10-22T05:05:37;14.40;99.90
18434;DHT22;9344;52.294;13.626;2022-10-22T05:08:04;14.30;99.90
18434;DHT22;9344;52.294;13.626;2022-10-22T05:10:30;14.30;99.90
18434;DHT22;9344;52.294;13.626;2022-10-22T05:12:57;14.40;99.90
18434;DHT22;9344;52.294;13.626;2022-10-22T05:15:23;14.40;99.90
18434;DHT22;9344;52.294;13.626;2022-10-22T05:17:49;14.40;99.90
18434;DHT22;9344;52.294;13.626;2022-10-22T05:20:16;14.30;99.90
18434;DHT22;9344;52.294;13.626;2022-10-22T05:22:44;14.30;99.90
18434;DHT22;9344;52.294;13.626;2022-10-22T05:25:10;14.30;99.90
18434;DHT22;9344;52.294;13.626;2022-10-22T05:27:37;14.40;99.90
18434;DHT22;9344;52.294;13.626;2022-10-22T05:30:04;14.30;99.90
18434;DHT22;9344;52.294;13.626;2022-10-22T05:32:33;14.30;99.90
18434;DHT22;9344;52.294;13.626;2022-10-22T05:35:00;14.30;99.90
18434;DHT22;9344;52.294;13.626;2022-10-22T05:37:26;14.30;99.90
18434;DHT22;9344;52.294;13.626;2022-10-22T05:39:54;14.30;99.90
18434;DHT22;9344;52.294;13.626;2022-10-22T05:42:20;14.30;99.90
18434;DHT22;9344;52.294;13.626;2022-10-22T05:44:47;14.20;99.90
18434;DHT22;9344;52.294;13.626;2022-10-22T05:47:13;14.30;99.90
18434;DHT22;9344;52.294;13.626;2022-10-22T05:49:40;14.20;99.90
18434;DHT22;9344;52.294;13.626;2022-10-22T05:52:06;14.20;99.90
18434;DHT22;9344;52.294;13.626;2022-10-22T05:54:33;14.20;99.90
18434;DHT22;9344;52.294;13.626;2022-10-22T05:57:01;14.20;99.90
18434;DHT22;9344;52.294;13.626;2022-10-22T05:59:27;14.20;99.90
18434;DHT22;9344;52.294;13.626;2022-10-22T06:01:54;14.20;99.90
18434;DHT22;9344;52.294;13.626;2022-10-22T06:04:20;14.20;99.90
18434;DHT22;9344;52.294;13.626;2022-10-22T06:06:48;14.20;99.90
18434;DHT22;9344;52.294;13.626;2022-10-22T06:09:17;14.20;99.90
18434;DHT22;9344;52.294;13.626;2022-10-22T06:11:45;14.20;99.90
18434;DHT22;9344;52.294;13.626;2022-10-22T06:14:14;14.20;99.90
18434;DHT22;9344;52.294;13.626;2022-10-22T06:16:40;14.20;99.90
18434;DHT22;9344;52.294;13.626;2022-10-22T06:19:08;14.20;99.90
18434;DHT22;9344;52.294;13.626;2022-10-22T06:21:35;14.20;99.90
18434;DHT22;9344;52.294;13.626;2022-10-22T06:24:02;14.20;99.90
18434;DHT22;9344;52.294;13.626;2022-10-22T06:26:29;14.20;99.90
18434;DHT22;9344;52.294;13.626;2022-10-22T06:28:57;14.20;99.90
18434;DHT22;9344;52.294;13.626;2022-10-22T06:31:25;14.20;99.90
18434;DHT22;9344;52.294;13.626;2022-10-22T06:33:52;14.20;99.90
18434;DHT22;9344;52.294;13.626;2022-10-22T06:36:21;14.20;99.90
18434;DHT22;9344;52.294;13.626;2022-10-22T06:38:50;14.20;99.90
18434;DHT22;9344;52.294;13.626;2022-10-22T06:41:17;14.20;99.90
18434;DHT22;9344;52.294;13.626;2022-10-22T06:43:44;14.10;99.90
18434;DHT22;9344;52.294;13.626;2022-10-22T06:46:13;14.10;99.90
18434;DHT22;9344;52.294;13.626;2022-10-22T06:48:41;14.10;99.90
18434;DHT22;9344;52.294;13.626;2022-10-22T06:51:09;14.00;99.90
18434;DHT22;9344;52.294;13.626;2022-10-22T06:53:38;14.10;99.90
18434;DHT22;9344;52.294;13.626;2022-10-22T06:56:05;14.10;99.90
18434;DHT22;9344;52.294;13.626;2022-10-22T06:58:31;14.00;99.90
18434;DHT22;9344;52.294;13.626;2022-10-22T07:01:02;14.10;99.90
18434;DHT22;9344;52.294;13.626;2022-10-22T07:03:29;14.10;99.90
18434;DHT22;9344;52.294;13.626;2022-10-22T07:05:59;14.10;99.90
18434;DHT22;9344;52.294;13.626;2022-10-22T07:08:26;14.20;99.90
18434;DHT22;9344;52.294;13.626;2022-10-22T07:10:53;14.20;99.90
18434;DHT22;9344;52.294;13.626;2022-10-22T07:13:20;14.20;99.90
18434;DHT22;9344;52.294;13.626;2022-10-22T07:15:51;14.30;99.90
18434;DHT22;9344;52.294;13.626;2022-10-22T07:18:18;14.20;99.90
18434;DHT22;9344;52.294;13.626;2022-10-22T07:20:45;14.30;99.90
18434;DHT22;9344;52.294;13.626;2022-10-22T07:23:13;14.30;99.90
18434;DHT22;9344;52.294;13.626;2022-10-22T07:25:40;14.30;99.90
18434;DHT22;9344;52.294;13.626;2022-10-22T07:28:06;14.30;99.90
18434;DHT22;9344;52.294;13.626;2022-10-22T07:30:34;14.30;99.90
18434;DHT22;9344;52.294;13.626;2022-10-22T07:33:01;14.40;99.90
18434;DHT22;9344;52.294;13.626;2022-10-22T07:35:27;14.40;99.90
18434;DHT22;9344;52.294;13.626;2022-10-22T07:37:54;14.40;99.90
18434;DHT22;9344;52.294;13.626;2022-10-22T07:40:22;14.40;99.90
18434;DHT22;9344;52.294;13.626;2022-10-22T07:42:48;14.40;99.90
18434;DHT22;9344;52.294;13.626;2022-10-22T07:45:15;14.50;99.90
18434;DHT22;9344;52.294;13.626;2022-10-22T07:47:41;14.50;99.90
18434;DHT22;9344;52.294;13.626;2022-10-22T07:50:08;14.50;99.90
18434;DHT22;9344;52.294;13.626;2022-10-22T07:52:35;14.50;99.90
18434;DHT22;9344;52.294;13.626;2022-10-22T07:55:01;14.50;99.90
18434;DHT22;9344;52.294;13.626;2022-10-22T07:57:29;14.60;99.90
18434;DHT22;9344;52.294;13.626;2022-10-22T07:59:56;14.70;99.90
18434;DHT22;9344;52.294;13.626;2022-10-22T08:02:22;14.70;99.90
18434;DHT22;9344;52.294;13.626;2022-10-22T08:04:49;14.70;99.90
18434;DHT22;9344;52.294;13.626;2022-10-22T08:07:16;14.70;99.90
18434;DHT22;9344;52.294;13.626;2022-10-22T08:09:42;14.80;99.90
18434;DHT22;9344;52.294;13.626;2022-10-22T08:12:09;14.80;99.90
18434;DHT22;9344;52.294;13.626;2022-10-22T08:14:37;14.80;99.90
18434;DHT22;9344;52.294;13.626;2022-10-22T08:17:03;14.80;99.90
18434;DHT22;9344;52.294;13.626;2022-10-22T08:19:30;14.80;99.90
18434;DHT22;9344;52.294;13.626;2022-10-22T08:21:56;14.70;99.90
18434;DHT22;9344;52.294;13.626;2022-10-22T08:24:23;14.70;99.90
18434;DHT22;9344;52.294;13.626;2022-10-22T08:26:51;14.70;99.90
18434;DHT22;9344;52.294;13.626;2022-10-22T08:29:18;14.80;99.90
18434;DHT22;9344;52.294;13.626;2022-10-22T08:31:47;14.80;99.90
18434;DHT22;9344;52.294;13.626;2022-10-22T08:34:14;14.80;99.90
18434;DHT22;9344;52.294;13.626;2022-10-22T08:36:40;14.90;99.90
18434;DHT22;9344;52.294;13.626;2022-10-22T08:39:07;14.80;99.90
18434;DHT22;9344;52.294;13.626;2022-10-22T08:41:39;14.80;99.90
18434;DHT22;9344;52.294;13.626;2022-10-22T08:47:37;14.90;99.90
18434;DHT22;9344;52.294;13.626;2022-10-22T08:50:08;15.00;99.90
18434;DHT22;9344;52.294;13.626;2022-10-22T08:52:36;15.00;99.90
18434;DHT22;9344;52.294;13.626;2022-10-22T08:55:07;15.10;99.90
18434;DHT22;9344;52.294;13.626;2022-10-22T08:57:45;15.10;99.90
18434;DHT22;9344;52.294;13.626;2022-10-22T09:00:20;15.20;99.90
18434;DHT22;9344;52.294;13.626;2022-10-22T09:02:58;15.20;99.90
18434;DHT22;9344;52.294;13.626;2022-10-22T09:05:33;15.30;99.90
18434;DHT22;9344;52.294;13.626;2022-10-22T09:08:04;15.30;99.90
18434;DHT22;9344;52.294;13.626;2022-10-22T09:10:35;15.40;99.90
18434;DHT22;9344;52.294;13.626;2022-10-22T09:13:03;15.50;99.90
18434;DHT22;9344;52.294;13.626;2022-10-22T09:15:30;15.60;99.90
18434;DHT22;9344;52.294;13.626;2022-10-22T09:18:10;15.60;99.90
18434;DHT22;9344;52.294;13.626;2022-10-22T09:20:46;15.60;99.90
18434;DHT22;9344;52.294;13.626;2022-10-22T09:23:22;15.60;99.90
18434;DHT22;9344;52.294;13.626;2022-10-22T09:25:51;15.70;99.90
18434;DHT22;9344;52.294;13.626;2022-10-22T09:28:17;15.70;99.90
18434;DHT22;9344;52.294;13.626;2022-10-22T09:30:44;15.90;99.90
18434;DHT22;9344;52.294;13.626;2022-10-22T09:33:14;15.80;99.90
18434;DHT22;9344;52.294;13.626;2022-10-22T09:35:46;15.90;99.90
18434;DHT22;9344;52.294;13.626;2022-10-22T09:38:14;15.80;99.90
18434;DHT22;9344;52.294;13.626;2022-10-22T09:40:43;15.90;99.90
18434;DHT22;9344;52.294;13.626;2022-10-22T09:43:12;15.90;99.90
18434;DHT22;9344;52.294;13.626;2022-10-22T09:45:39;15.90;99.90
18434;DHT22;9344;52.294;13.626;2022-10-22T09:48:16;16.00;99.90
18434;DHT22;9344;52.294;13.626;2022-10-22T09:50:44;16.00;99.90
18434;DHT22;9344;52.294;13.626;2022-10-22T09:53:17;16.10;99.90
18434;DHT22;9344;52.294;13.626;2022-10-22T09:55:49;16.10;99.90
18434;DHT22;9344;52.294;13.626;2022-10-22T09:58:16;16.10;99.90
18434;DHT22;9344;52.294;13.626;2022-10-22T10:00:46;16.10;99.90
18434;DHT22;9344;52.294;13.626;2022-10-22T10:03:19;16.10;99.90
18434;DHT22;9344;52.294;13.626;2022-10-22T10:05:49;16.20;99.90
18434;DHT22;9344;52.294;13.626;2022-10-22T10:08:17;16.20;99.90
18434;DHT22;9344;52.294;13.626;2022-10-22T10:10:47;16.20;99.90
18434;DHT22;9344;52.294;13.626;2022-10-22T10:13:27;16.20;99.90
18434;DHT22;9344;52.294;13.626;2022-10-22T10:16:03;16.20;99.90
18434;DHT22;9344;52.294;13.626;2022-10-22T10:18:46;16.20;99.90
18434;DHT22;9344;52.294;13.626;2022-10-22T10:21:22;16.20;99.90
18434;DHT22;9344;52.294;13.626;2022-10-22T10:23:56;16.30;99.90
18434;DHT22;9344;52.294;13.626;2022-10-22T10:26:29;16.40;99.90
18434;DHT22;9344;52.294;13.626;2022-10-22T10:29:05;16.40;99.90
18434;DHT22;9344;52.294;13.626;2022-10-22T10:31:44;16.40;99.90
18434;DHT22;9344;52.294;13.626;2022-10-22T10:34:27;16.40;99.90
18434;DHT22;9344;52.294;13.626;2022-10-22T10:37:00;16.40;99.90
18434;DHT22;9344;52.294;13.626;2022-10-22T10:39:36;16.40;99.90
18434;DHT22;9344;52.294;13.626;2022-10-22T10:42:13;16.50;99.90
18434;DHT22;9344;52.294;13.626;2022-10-22T10:44:56;16.50;99.90
18434;DHT22;9344;52.294;13.626;2022-10-22T10:47:37;16.50;99.90
18434;DHT22;9344;52.294;13.626;2022-10-22T10:50:16;16.50;99.90
18434;DHT22;9344;52.294;13.626;2022-10-22T10:52:51;16.50;99.90
18434;DHT22;9344;52.294;13.626;2022-10-22T10:55:27;16.60;99.90
18434;DHT22;9344;52.294;13.626;2022-10-22T10:58:03;16.60;99.90
18434;DHT22;9344;52.294;13.626;2022-10-22T11:00:37;16.60;99.90
18434;DHT22;9344;52.294;13.626;2022-10-22T11:03:27;16.60;99.90
18434;DHT22;9344;52.294;13.626;2022-10-22T11:06:00;16.70;99.90
18434;DHT22;9344;52.294;13.626;2022-10-22T11:08:29;16.80;99.90
18434;DHT22;9344;52.294;13.626;2022-10-22T11:11:00;16.80;99.90
18434;DHT22;9344;52.294;13.626;2022-10-22T11:13:31;17.00;99.90
18434;DHT22;9344;52.294;13.626;2022-10-22T11:16:02;17.10;99.90
18434;DHT22;9344;52.294;13.626;2022-10-22T11:18:34;17.30;99.90
18434;DHT22;9344;52.294;13.626;2022-10-22T11:21:09;17.30;99.90
18434;DHT22;9344;52.294;13.626;2022-10-22T11:23:43;17.30;99.90
18434;DHT22;9344;52.294;13.626;2022-10-22T11:26:14;17.20;99.90
18434;DHT22;9344;52.294;13.626;2022-10-22T11:28:46;17.30;99.90
18434;DHT22;9344;52.294;13.626;2022-10-22T11:31:15;16.90;99.90
18434;DHT22;9344;52.294;13.626;2022-10-22T11:33:47;17.30;99.90
18434;DHT22;9344;52.294;13.626;2022-10-22T11:36:19;17.30;99.90
18434;DHT22;9344;52.294;13.626;2022-10-22T11:38:46;17.40;99.90
18434;DHT22;9344;52.294;13.626;2022-10-22T11:41:15;17.50;99.90
18434;DHT22;9344;52.294;13.626;2022-10-22T11:44:00;17.50;99.90
18434;DHT22;9344;52.294;13.626;2022-10-22T11:46:38;17.60;99.90
18434;DHT22;9344;52.294;13.626;2022-10-22T11:49:17;17.80;99.90
18434;DHT22;9344;52.294;13.626;2022-10-22T11:51:45;17.90;99.90
18434;DHT22;9344;52.294;13.626;2022-10-22T11:54:30;18.10;99.90
18434;DHT22;9344;52.294;13.626;2022-10-22T11:57:16;18.10;99.90
18434;DHT22;9344;52.294;13.626;2022-10-22T11:59:48;18.10;99.90
18434;DHT22;9344;52.294;13.626;2022-10-22T12:05:34;17.90;99.90
18434;DHT22;9344;52.294;13.626;2022-10-22T12:08:23;17.90;99.90
18434;DHT22;9344;52.294;13.626;2022-10-22T12:11:02;17.90;99.90
18434;DHT22;9344;52.294;13.626;2022-10-22T12:13:31;18.00;99.90
18434;DHT22;9344;52.294;13.626;2022-10-22T12:16:01;18.10;99.90
18434;DHT22;9344;52.294;13.626;2022-10-22T12:18:33;18.20;99.90
18434;DHT22;9344;52.294;13.626;2022-10-22T12:21:00;18.40;99.90
18434;DHT22;9344;52.294;13.626;2022-10-22T12:23:32;18.30;99.90
18434;DHT22;9344;52.294;13.626;2022-10-22T12:25:59;18.50;99.90
18434;DHT22;9344;52.294;13.626;2022-10-22T12:28:26;18.70;99.90
18434;DHT22;9344;52.294;13.626;2022-10-22T12:30:53;18.80;99.90
18434;DHT22;9344;52.294;13.626;2022-10-22T12:33:21;18.70;99.90
18434;DHT22;9344;52.294;13.626;2022-10-22T12:35:50;18.80;99.90
18434;DHT22;9344;52.294;13.626;2022-10-22T12:38:22;18.80;99.90
18434;DHT22;9344;52.294;13.626;2022-10-22T12:40:54;18.80;99.90
18434;DHT22;9344;52.294;13.626;2022-10-22T12:43:24;18.90;99.90
18434;DHT22;9344;52.294;13.626;2022-10-22T12:45:52;19.00;99.90
18434;DHT22;9344;52.294;13.626;2022-10-22T12:48:21;18.90;99.90
18434;DHT22;9344;52.294;13.626;2022-10-22T12:50:51;18.90;99.90
18434;DHT22;9344;52.294;13.626;2022-10-22T12:53:21;19.10;99.90
18434;DHT22;9344;52.294;13.626;2022-10-22T12:55:51;18.70;99.90
18434;DHT22;9344;52.294;13.626;2022-10-22T12:58:21;19.10;99.90
18434;DHT22;9344;52.294;13.626;2022-10-22T13:00:52;19.30;99.90
18434;DHT22;9344;52.294;13.626;2022-10-22T13:03:28;19.30;99.90
18434;DHT22;9344;52.294;13.626;2022-10-22T13:05:54;19.30;99.90
18434;DHT22;9344;52.294;13.626;2022-10-22T13:08:25;19.30;99.90
18434;DHT22;9344;52.294;13.626;2022-10-22T13:10:53;19.40;99.90
18434;DHT22;9344;52.294;13.626;2022-10-22T13:13:31;19.50;99.90
18434;DHT22;9344;52.294;13.626;2022-10-22T13:16:12;19.50;99.90
18434;DHT22;9344;52.294;13.626;2022-10-22T13:18:39;19.30;99.90
18434;DHT22;9344;52.294;13.626;2022-10-22T13:21:21;19.30;99.90
18434;DHT22;9344;52.294;13.626;2022-10-22T13:23:52;19.30;99.90
18434;DHT22;9344;52.294;13.626;2022-10-22T13:26:21;19.20;99.90
18434;DHT22;9344;52.294;13.626;2022-10-22T13:28:52;19.20;99.90
18434;DHT22;9344;52.294;13.626;2022-10-22T13:31:22;19.20;99.90
18434;DHT22;9344;52.294;13.626;2022-10-22T13:33:52;19.30;99.90
18434;DHT22;9344;52.294;13.626;2022-10-22T13:36:20;19.20;99.90
18434;DHT22;9344;52.294;13.626;2022-10-22T13:38:47;19.30;99.90
18434;DHT22;9344;52.294;13.626;2022-10-22T13:41:23;19.30;99.90
18434;DHT22;9344;52.294;13.626;2022-10-22T13:43:51;19.40;99.90
18434;DHT22;9344;52.294;13.626;2022-10-22T13:46:18;19.50;99.90
18434;DHT22;9344;52.294;13.626;2022-10-22T13:48:46;19.60;99.90
18434;DHT22;9344;52.294;13.626;2022-10-22T13:51:16;19.70;99.90
18434;DHT22;9344;52.294;13.626;2022-10-22T13:53:43;19.90;99.90
18434;DHT22;9344;52.294;13.626;2022-10-22T13:56:12;20.00;99.90
18434;DHT22;9344;52.294;13.626;2022-10-22T13:58:41;20.00;99.90
18434;DHT22;9344;52.294;13.626;2022-10-22T14:01:16;20.10;99.90
18434;DHT22;9344;52.294;13.626;2022-10-22T14:03:44;20.10;99.90
18434;DHT22;9344;52.294;13.626;2022-10-22T14:06:12;20.10;99.90
18434;DHT22;9344;52.294;13.626;2022-10-22T14:08:40;20.10;99.90
18434;DHT22;9344;52.294;13.626;2022-10-22T14:11:08;20.10;99.90
18434;DHT22;9344;52.294;13.626;2022-10-22T14:13:35;20.30;99.90
18434;DHT22;9344;52.294;13.626;2022-10-22T14:16:04;20.40;99.90
18434;DHT22;9344;52.294;13.626;2022-10-22T14:18:32;20.40;99.90
18434;DHT22;9344;52.294;13.626;2022-10-22T14:21:01;20.60;99.90
18434;DHT22;9344;52.294;13.626;2022-10-22T14:23:32;20.70;99.90
18434;DHT22;9344;52.294;13.626;2022-10-22T14:26:00;20.70;99.90
18434;DHT22;9344;52.294;13.626;2022-10-22T14:28:26;20.80;99.90
18434;DHT22;9344;52.294;13.626;2022-10-22T14:30:53;20.70;99.90
18434;DHT22;9344;52.294;13.626;2022-10-22T14:33:24;20.80;99.90
18434;DHT22;9344;52.294;13.626;2022-10-22T14:35:52;20.80;99.90
18434;DHT22;9344;52.294;13.626;2022-10-22T14:38:19;20.90;99.90
18434;DHT22;9344;52.294;13.626;2022-10-22T14:40:46;21.00;99.90
18434;DHT22;9344;52.294;13.626;2022-10-22T14:43:17;21.10;99.90
18434;DHT22;9344;52.294;13.626;2022-10-22T14:45:44;21.10;99.90
18434;DHT22;9344;52.294;13.626;2022-10-22T14:48:10;21.10;99.90
18434;DHT22;9344;52.294;13.626;2022-10-22T14:50:38;21.10;99.90
18434;DHT22;9344;52.294;13.626;2022-10-22T14:53:05;21.00;99.90
18434;DHT22;9344;52.294;13.626;2022-10-22T14:55:31;21.00;99.90
18434;DHT22;9344;52.294;13.626;2022-10-22T14:57:58;20.80;99.90
18434;DHT22;9344;52.294;13.626;2022-10-22T15:00:24;20.80;99.90
18434;DHT22;9344;52.294;13.626;2022-10-22T15:02:51;20.60;99.90
18434;DHT22;9344;52.294;13.626;2022-10-22T15:05:20;20.60;99.90
18434;DHT22;9344;52.294;13.626;2022-10-22T15:07:47;20.40;99.90
18434;DHT22;9344;52.294;13.626;2022-10-22T15:10:14;20.40;99.90
18434;DHT22;9344;52.294;13.626;2022-10-22T15:12:41;20.30;99.90
18434;DHT22;9344;52.294;13.626;2022-10-22T15:15:08;20.20;99.90
18434;DHT22;9344;52.294;13.626;2022-10-22T15:17:35;20.10;99.90
18434;DHT22;9344;52.294;13.626;2022-10-22T15:20:02;20.00;99.90
18434;DHT22;9344;52.294;13.626;2022-10-22T15:22:30;19.90;99.90
18434;DHT22;9344;52.294;13.626;2022-10-22T15:25:01;19.80;99.90
18434;DHT22;9344;52.294;13.626;2022-10-22T15:27:27;19.80;99.90
18434;DHT22;9344;52.294;13.626;2022-10-22T15:29:55;19.70;99.90
18434;DHT22;9344;52.294;13.626;2022-10-22T15:32:23;19.60;99.90
18434;DHT22;9344;52.294;13.626;2022-10-22T15:34:51;19.60;99.90
18434;DHT22;9344;52.294;13.626;2022-10-22T15:37:18;19.50;99.90
18434;DHT22;9344;52.294;13.626;2022-10-22T15:39:44;19.50;99.90
18434;DHT22;9344;52.294;13.626;2022-10-22T15:42:12;19.50;99.90
18434;DHT22;9344;52.294;13.626;2022-10-22T15:44:39;19.50;99.90
18434;DHT22;9344;52.294;13.626;2022-10-22T15:47:06;19.50;99.90
18434;DHT22;9344;52.294;13.626;2022-10-22T15:49:34;19.40;99.90
18434;DHT22;9344;52.294;13.626;2022-10-22T15:52:02;19.40;99.90